Terminal Aerodrome Forecast
Issued by NWS

Home | Current Version | Previous Version | Text Only | Print | Product List | Glossary On
Versions: 1 2 3 4 5 6 7 8 9 10 11 12 13 14 15 16 17 18 19 20 21 22 23
615
FTUS43 KJKL 061149
TAFSME
TAF
KSME 061149Z 0612/0712 VRB05KT P6SM -RA OVC015
     FM061400 VRB05KT P6SM -RA SCT015 OVC030
     FM061600 VRB05KT 4SM RA OVC007
     FM062100 30010G16KT 5SM -DZ VCSH OVC007
     FM070500 VRB05KT P6SM OVC015=

USA.gov is the U.S. government's official web portal to all federal, state and local government web resources and services.